sensor_id;sensor_type;location;lat;lon;timestamp;P1;durP1;ratioP1;P2;durP2;ratioP2
11313;SDS011;5712;48.858;9.206;2022-09-06T00:00:51;6.97;;;5.03;;
11313;SDS011;5712;48.858;9.206;2022-09-06T00:03:19;5.27;;;4.77;;
11313;SDS011;5712;48.858;9.206;2022-09-06T00:05:47;5.97;;;5.20;;
11313;SDS011;5712;48.858;9.206;2022-09-06T00:08:14;5.70;;;5.10;;
11313;SDS011;5712;48.858;9.206;2022-09-06T00:10:41;6.03;;;4.90;;
11313;SDS011;5712;48.858;9.206;2022-09-06T00:13:08;5.73;;;4.67;;
11313;SDS011;5712;48.858;9.206;2022-09-06T00:15:36;6.60;;;5.00;;
11313;SDS011;5712;48.858;9.206;2022-09-06T00:18:04;5.47;;;4.87;;
11313;SDS011;5712;48.858;9.206;2022-09-06T00:20:33;6.63;;;4.87;;
11313;SDS011;5712;48.858;9.206;2022-09-06T00:23:01;5.77;;;4.70;;
11313;SDS011;5712;48.858;9.206;2022-09-06T00:25:30;8.20;;;5.37;;
11313;SDS011;5712;48.858;9.206;2022-09-06T00:27:57;5.83;;;4.90;;
11313;SDS011;5712;48.858;9.206;2022-09-06T00:30:26;6.47;;;5.60;;
11313;SDS011;5712;48.858;9.206;2022-09-06T00:32:54;7.30;;;5.50;;
11313;SDS011;5712;48.858;9.206;2022-09-06T00:35:21;7.37;;;6.10;;
11313;SDS011;5712;48.858;9.206;2022-09-06T00:37:51;6.80;;;5.57;;
11313;SDS011;5712;48.858;9.206;2022-09-06T00:40:20;7.57;;;5.93;;
11313;SDS011;5712;48.858;9.206;2022-09-06T00:42:47;7.20;;;5.83;;
11313;SDS011;5712;48.858;9.206;2022-09-06T00:45:14;7.17;;;5.70;;
11313;SDS011;5712;48.858;9.206;2022-09-06T00:47:41;6.07;;;5.47;;
11313;SDS011;5712;48.858;9.206;2022-09-06T00:50:09;6.43;;;5.23;;
11313;SDS011;5712;48.858;9.206;2022-09-06T00:52:37;5.90;;;4.87;;
11313;SDS011;5712;48.858;9.206;2022-09-06T00:55:07;6.30;;;5.53;;
11313;SDS011;5712;48.858;9.206;2022-09-06T00:57:34;6.43;;;5.50;;
11313;SDS011;5712;48.858;9.206;2022-09-06T01:00:02;7.33;;;5.63;;
11313;SDS011;5712;48.858;9.206;2022-09-06T01:02:32;7.07;;;5.20;;
11313;SDS011;5712;48.858;9.206;2022-09-06T01:04:59;5.60;;;5.00;;
11313;SDS011;5712;48.858;9.206;2022-09-06T01:07:30;6.80;;;5.00;;
11313;SDS011;5712;48.858;9.206;2022-09-06T01:10:22;5.90;;;5.07;;
11313;SDS011;5712;48.858;9.206;2022-09-06T01:12:58;6.37;;;5.27;;
11313;SDS011;5712;48.858;9.206;2022-09-06T01:15:32;7.17;;;5.47;;
11313;SDS011;5712;48.858;9.206;2022-09-06T01:18:09;8.03;;;5.93;;
11313;SDS011;5712;48.858;9.206;2022-09-06T01:20:56;5.67;;;5.07;;
11313;SDS011;5712;48.858;9.206;2022-09-06T01:23:44;6.07;;;5.17;;
11313;SDS011;5712;48.858;9.206;2022-09-06T01:29:50;5.77;;;4.87;;
11313;SDS011;5712;48.858;9.206;2022-09-06T01:32:22;5.70;;;5.00;;
11313;SDS011;5712;48.858;9.206;2022-09-06T01:34:57;5.87;;;5.10;;
11313;SDS011;5712;48.858;9.206;2022-09-06T01:37:30;6.07;;;4.73;;
11313;SDS011;5712;48.858;9.206;2022-09-06T01:39:58;5.80;;;4.97;;
11313;SDS011;5712;48.858;9.206;2022-09-06T01:42:25;5.97;;;4.73;;
11313;SDS011;5712;48.858;9.206;2022-09-06T01:44:57;6.67;;;5.40;;
11313;SDS011;5712;48.858;9.206;2022-09-06T01:47:34;5.80;;;5.10;;
11313;SDS011;5712;48.858;9.206;2022-09-06T01:50:11;6.37;;;5.33;;
11313;SDS011;5712;48.858;9.206;2022-09-06T01:52:55;6.43;;;5.40;;
11313;SDS011;5712;48.858;9.206;2022-09-06T01:56:03;7.23;;;5.53;;
11313;SDS011;5712;48.858;9.206;2022-09-06T01:58:40;6.27;;;5.13;;
11313;SDS011;5712;48.858;9.206;2022-09-06T02:01:23;6.20;;;4.93;;
11313;SDS011;5712;48.858;9.206;2022-09-06T02:03:57;6.80;;;5.70;;
11313;SDS011;5712;48.858;9.206;2022-09-06T02:06:27;6.27;;;5.67;;
11313;SDS011;5712;48.858;9.206;2022-09-06T02:08:57;5.77;;;5.23;;
11313;SDS011;5712;48.858;9.206;2022-09-06T02:11:30;6.10;;;4.90;;
11313;SDS011;5712;48.858;9.206;2022-09-06T02:14:03;5.97;;;4.83;;
11313;SDS011;5712;48.858;9.206;2022-09-06T02:16:36;7.07;;;5.70;;
11313;SDS011;5712;48.858;9.206;2022-09-06T02:19:05;6.83;;;5.40;;
11313;SDS011;5712;48.858;9.206;2022-09-06T02:21:38;7.30;;;5.97;;
11313;SDS011;5712;48.858;9.206;2022-09-06T02:24:08;6.77;;;5.27;;
11313;SDS011;5712;48.858;9.206;2022-09-06T02:26:41;7.73;;;5.13;;
11313;SDS011;5712;48.858;9.206;2022-09-06T02:29:10;6.60;;;5.00;;
11313;SDS011;5712;48.858;9.206;2022-09-06T02:31:40;5.93;;;4.17;;
11313;SDS011;5712;48.858;9.206;2022-09-06T02:34:12;6.67;;;4.47;;
11313;SDS011;5712;48.858;9.206;2022-09-06T02:36:41;4.37;;;3.97;;
11313;SDS011;5712;48.858;9.206;2022-09-06T02:39:08;4.60;;;4.20;;
11313;SDS011;5712;48.858;9.206;2022-09-06T02:41:35;4.43;;;4.03;;
11313;SDS011;5712;48.858;9.206;2022-09-06T02:44:02;5.17;;;4.57;;
11313;SDS011;5712;48.858;9.206;2022-09-06T02:46:29;4.87;;;4.40;;
11313;SDS011;5712;48.858;9.206;2022-09-06T02:48:57;4.23;;;3.83;;
11313;SDS011;5712;48.858;9.206;2022-09-06T02:51:24;5.73;;;4.07;;
11313;SDS011;5712;48.858;9.206;2022-09-06T02:53:50;5.17;;;4.67;;
11313;SDS011;5712;48.858;9.206;2022-09-06T02:56:17;4.03;;;3.73;;
11313;SDS011;5712;48.858;9.206;2022-09-06T02:58:44;5.70;;;4.57;;
11313;SDS011;5712;48.858;9.206;2022-09-06T03:01:11;7.03;;;5.13;;
11313;SDS011;5712;48.858;9.206;2022-09-06T03:03:37;4.90;;;4.30;;
11313;SDS011;5712;48.858;9.206;2022-09-06T03:06:06;5.40;;;4.50;;
11313;SDS011;5712;48.858;9.206;2022-09-06T03:08:32;5.80;;;5.20;;
11313;SDS011;5712;48.858;9.206;2022-09-06T03:11:00;6.93;;;4.97;;
11313;SDS011;5712;48.858;9.206;2022-09-06T03:13:27;6.20;;;5.60;;
11313;SDS011;5712;48.858;9.206;2022-09-06T03:15:55;6.07;;;5.20;;
11313;SDS011;5712;48.858;9.206;2022-09-06T03:18:23;5.73;;;5.23;;
11313;SDS011;5712;48.858;9.206;2022-09-06T03:20:51;5.73;;;5.20;;
11313;SDS011;5712;48.858;9.206;2022-09-06T03:23:22;5.80;;;4.77;;
11313;SDS011;5712;48.858;9.206;2022-09-06T03:25:50;6.43;;;5.83;;
11313;SDS011;5712;48.858;9.206;2022-09-06T03:28:17;7.07;;;5.83;;
11313;SDS011;5712;48.858;9.206;2022-09-06T03:30:45;6.33;;;5.63;;
11313;SDS011;5712;48.858;9.206;2022-09-06T03:33:13;7.50;;;6.70;;
11313;SDS011;5712;48.858;9.206;2022-09-06T03:35:45;8.33;;;5.80;;
11313;SDS011;5712;48.858;9.206;2022-09-06T03:38:13;7.60;;;6.40;;
11313;SDS011;5712;48.858;9.206;2022-09-06T03:40:44;9.30;;;6.27;;
11313;SDS011;5712;48.858;9.206;2022-09-06T03:43:11;7.40;;;6.03;;
11313;SDS011;5712;48.858;9.206;2022-09-06T03:45:38;7.47;;;6.33;;
11313;SDS011;5712;48.858;9.206;2022-09-06T03:48:05;6.30;;;5.70;;
11313;SDS011;5712;48.858;9.206;2022-09-06T03:50:32;7.17;;;5.80;;
11313;SDS011;5712;48.858;9.206;2022-09-06T03:52:58;6.57;;;5.87;;
11313;SDS011;5712;48.858;9.206;2022-09-06T03:55:25;6.50;;;5.90;;
11313;SDS011;5712;48.858;9.206;2022-09-06T03:57:53;6.67;;;5.53;;
11313;SDS011;5712;48.858;9.206;2022-09-06T04:00:20;5.80;;;5.13;;
11313;SDS011;5712;48.858;9.206;2022-09-06T04:02:48;6.20;;;5.60;;
11313;SDS011;5712;48.858;9.206;2022-09-06T04:05:14;11.23;;;6.63;;
11313;SDS011;5712;48.858;9.206;2022-09-06T04:07:41;6.60;;;6.00;;
11313;SDS011;5712;48.858;9.206;2022-09-06T04:10:08;8.13;;;6.23;;
11313;SDS011;5712;48.858;9.206;2022-09-06T04:12:35;8.13;;;6.10;;
11313;SDS011;5712;48.858;9.206;2022-09-06T04:15:04;8.23;;;6.03;;
11313;SDS011;5712;48.858;9.206;2022-09-06T04:17:31;6.47;;;5.77;;
11313;SDS011;5712;48.858;9.206;2022-09-06T04:19:58;6.13;;;5.40;;
11313;SDS011;5712;48.858;9.206;2022-09-06T04:22:25;6.73;;;6.13;;
11313;SDS011;5712;48.858;9.206;2022-09-06T04:24:51;6.20;;;5.60;;
11313;SDS011;5712;48.858;9.206;2022-09-06T04:27:18;6.33;;;5.73;;
11313;SDS011;5712;48.858;9.206;2022-09-06T04:29:45;6.33;;;5.73;;
11313;SDS011;5712;48.858;9.206;2022-09-06T04:32:13;6.50;;;5.90;;
11313;SDS011;5712;48.858;9.206;2022-09-06T04:34:40;6.10;;;5.50;;
11313;SDS011;5712;48.858;9.206;2022-09-06T04:37:06;5.90;;;5.30;;
11313;SDS011;5712;48.858;9.206;2022-09-06T04:39:33;6.70;;;6.10;;
11313;SDS011;5712;48.858;9.206;2022-09-06T04:42:00;8.10;;;5.80;;
11313;SDS011;5712;48.858;9.206;2022-09-06T04:44:26;7.00;;;6.30;;
11313;SDS011;5712;48.858;9.206;2022-09-06T04:47:02;7.13;;;6.23;;
11313;SDS011;5712;48.858;9.206;2022-09-06T04:49:31;7.53;;;6.27;;
11313;SDS011;5712;48.858;9.206;2022-09-06T04:51:57;6.77;;;6.17;;
11313;SDS011;5712;48.858;9.206;2022-09-06T04:54:24;7.50;;;6.70;;
11313;SDS011;5712;48.858;9.206;2022-09-06T04:56:51;6.83;;;6.13;;
11313;SDS011;5712;48.858;9.206;2022-09-06T04:59:18;10.10;;;8.00;;
11313;SDS011;5712;48.858;9.206;2022-09-06T05:01:44;8.27;;;7.47;;
11313;SDS011;5712;48.858;9.206;2022-09-06T05:04:11;7.97;;;7.17;;
11313;SDS011;5712;48.858;9.206;2022-09-06T05:06:39;7.37;;;6.67;;
11313;SDS011;5712;48.858;9.206;2022-09-06T05:09:07;8.33;;;7.50;;
11313;SDS011;5712;48.858;9.206;2022-09-06T05:11:34;8.13;;;7.33;;
11313;SDS011;5712;48.858;9.206;2022-09-06T05:14:00;8.33;;;6.90;;
11313;SDS011;5712;48.858;9.206;2022-09-06T05:16:27;8.27;;;7.47;;
11313;SDS011;5712;48.858;9.206;2022-09-06T05:18:54;7.83;;;7.00;;
11313;SDS011;5712;48.858;9.206;2022-09-06T05:21:20;8.37;;;7.00;;
11313;SDS011;5712;48.858;9.206;2022-09-06T05:23:49;8.10;;;6.90;;
11313;SDS011;5712;48.858;9.206;2022-09-06T05:26:16;7.30;;;6.60;;
11313;SDS011;5712;48.858;9.206;2022-09-06T05:28:42;7.13;;;6.40;;
11313;SDS011;5712;48.858;9.206;2022-09-06T05:31:09;7.10;;;6.40;;
11313;SDS011;5712;48.858;9.206;2022-09-06T05:33:37;7.70;;;6.60;;
11313;SDS011;5712;48.858;9.206;2022-09-06T05:36:04;8.10;;;6.80;;
11313;SDS011;5712;48.858;9.206;2022-09-06T05:38:32;6.97;;;6.27;;
11313;SDS011;5712;48.858;9.206;2022-09-06T05:41:00;7.20;;;6.50;;
11313;SDS011;5712;48.858;9.206;2022-09-06T05:43:26;6.97;;;6.33;;
11313;SDS011;5712;48.858;9.206;2022-09-06T05:45:53;7.80;;;7.00;;
11313;SDS011;5712;48.858;9.206;2022-09-06T05:48:20;7.53;;;6.70;;
11313;SDS011;5712;48.858;9.206;2022-09-06T05:50:47;9.87;;;6.70;;
11313;SDS011;5712;48.858;9.206;2022-09-06T05:53:13;7.10;;;6.40;;
11313;SDS011;5712;48.858;9.206;2022-09-06T05:55:40;8.77;;;7.20;;
11313;SDS011;5712;48.858;9.206;2022-09-06T05:58:08;7.63;;;6.63;;
11313;SDS011;5712;48.858;9.206;2022-09-06T06:00:35;7.47;;;6.43;;
11313;SDS011;5712;48.858;9.206;2022-09-06T06:03:01;7.90;;;7.10;;
11313;SDS011;5712;48.858;9.206;2022-09-06T06:05:28;7.10;;;6.40;;
11313;SDS011;5712;48.858;9.206;2022-09-06T06:07:55;8.70;;;6.97;;
11313;SDS011;5712;48.858;9.206;2022-09-06T06:10:23;7.93;;;6.87;;
11313;SDS011;5712;48.858;9.206;2022-09-06T06:12:50;8.30;;;7.47;;
11313;SDS011;5712;48.858;9.206;2022-09-06T06:15:18;7.73;;;6.93;;
11313;SDS011;5712;48.858;9.206;2022-09-06T06:17:45;8.17;;;7.37;;
11313;SDS011;5712;48.858;9.206;2022-09-06T06:20:11;9.13;;;7.70;;
11313;SDS011;5712;48.858;9.206;2022-09-06T06:22:38;8.43;;;7.50;;
11313;SDS011;5712;48.858;9.206;2022-09-06T06:25:05;7.23;;;6.40;;
11313;SDS011;5712;48.858;9.206;2022-09-06T06:27:33;7.80;;;6.50;;
11313;SDS011;5712;48.858;9.206;2022-09-06T06:30:01;9.50;;;7.40;;
11313;SDS011;5712;48.858;9.206;2022-09-06T06:32:29;7.77;;;6.77;;
11313;SDS011;5712;48.858;9.206;2022-09-06T06:34:55;8.00;;;6.47;;
11313;SDS011;5712;48.858;9.206;2022-09-06T06:37:22;7.90;;;6.33;;
11313;SDS011;5712;48.858;9.206;2022-09-06T06:39:49;7.80;;;6.17;;
11313;SDS011;5712;48.858;9.206;2022-09-06T06:42:16;7.00;;;6.10;;
11313;SDS011;5712;48.858;9.206;2022-09-06T06:44:42;7.20;;;6.20;;
11313;SDS011;5712;48.858;9.206;2022-09-06T06:47:09;7.53;;;5.90;;
11313;SDS011;5712;48.858;9.206;2022-09-06T06:49:37;7.50;;;5.60;;
11313;SDS011;5712;48.858;9.206;2022-09-06T06:52:04;7.97;;;6.23;;
11313;SDS011;5712;48.858;9.206;2022-09-06T06:54:31;7.50;;;6.13;;
11313;SDS011;5712;48.858;9.206;2022-09-06T06:56:57;7.50;;;5.90;;
11313;SDS011;5712;48.858;9.206;2022-09-06T06:59:24;6.83;;;6.03;;
11313;SDS011;5712;48.858;9.206;2022-09-06T07:01:51;6.93;;;5.37;;
11313;SDS011;5712;48.858;9.206;2022-09-06T07:04:17;5.90;;;5.20;;
11313;SDS011;5712;48.858;9.206;2022-09-06T07:06:46;6.23;;;5.47;;
11313;SDS011;5712;48.858;9.206;2022-09-06T07:09:14;5.60;;;5.10;;
11313;SDS011;5712;48.858;9.206;2022-09-06T07:11:42;7.97;;;5.30;;
11313;SDS011;5712;48.858;9.206;2022-09-06T07:14:09;4.40;;;4.00;;
11313;SDS011;5712;48.858;9.206;2022-09-06T07:16:35;5.80;;;4.90;;
11313;SDS011;5712;48.858;9.206;2022-09-06T07:19:02;4.93;;;4.43;;
11313;SDS011;5712;48.858;9.206;2022-09-06T07:21:29;4.90;;;4.47;;
11313;SDS011;5712;48.858;9.206;2022-09-06T07:23:57;5.27;;;4.77;;
11313;SDS011;5712;48.858;9.206;2022-09-06T07:26:24;7.47;;;5.13;;
11313;SDS011;5712;48.858;9.206;2022-09-06T07:28:52;8.23;;;4.90;;
11313;SDS011;5712;48.858;9.206;2022-09-06T07:31:19;8.83;;;5.33;;
11313;SDS011;5712;48.858;9.206;2022-09-06T07:33:46;6.83;;;5.07;;
11313;SDS011;5712;48.858;9.206;2022-09-06T07:36:13;6.27;;;5.67;;
11313;SDS011;5712;48.858;9.206;2022-09-06T07:38:40;6.40;;;5.10;;
11313;SDS011;5712;48.858;9.206;2022-09-06T07:41:09;8.33;;;5.07;;
11313;SDS011;5712;48.858;9.206;2022-09-06T07:43:36;7.57;;;5.40;;
11313;SDS011;5712;48.858;9.206;2022-09-06T07:46:03;5.50;;;5.00;;
11313;SDS011;5712;48.858;9.206;2022-09-06T07:48:31;6.10;;;4.97;;
11313;SDS011;5712;48.858;9.206;2022-09-06T07:51:03;5.20;;;4.70;;
11313;SDS011;5712;48.858;9.206;2022-09-06T07:53:31;7.03;;;5.00;;
11313;SDS011;5712;48.858;9.206;2022-09-06T07:55:59;5.97;;;5.17;;
11313;SDS011;5712;48.858;9.206;2022-09-06T07:58:28;6.27;;;5.10;;
11313;SDS011;5712;48.858;9.206;2022-09-06T08:03:44;6.37;;;4.63;;
11313;SDS011;5712;48.858;9.206;2022-09-06T08:06:12;5.77;;;4.63;;
11313;SDS011;5712;48.858;9.206;2022-09-06T08:08:39;5.27;;;4.47;;
11313;SDS011;5712;48.858;9.206;2022-09-06T08:11:06;5.67;;;4.53;;
11313;SDS011;5712;48.858;9.206;2022-09-06T08:13:34;6.07;;;4.73;;
11313;SDS011;5712;48.858;9.206;2022-09-06T08:16:02;4.83;;;3.90;;
11313;SDS011;5712;48.858;9.206;2022-09-06T08:18:30;5.63;;;4.30;;
11313;SDS011;5712;48.858;9.206;2022-09-06T08:21:04;5.80;;;4.20;;
11313;SDS011;5712;48.858;9.206;2022-09-06T08:23:31;4.43;;;3.80;;
11313;SDS011;5712;48.858;9.206;2022-09-06T08:25:58;4.07;;;3.63;;
11313;SDS011;5712;48.858;9.206;2022-09-06T08:28:25;4.20;;;3.80;;
11313;SDS011;5712;48.858;9.206;2022-09-06T08:30:53;4.53;;;3.80;;
11313;SDS011;5712;48.858;9.206;2022-09-06T08:33:20;4.50;;;4.10;;
11313;SDS011;5712;48.858;9.206;2022-09-06T08:35:55;5.40;;;4.17;;
11313;SDS011;5712;48.858;9.206;2022-09-06T08:38:22;5.10;;;4.23;;
11313;SDS011;5712;48.858;9.206;2022-09-06T08:40:49;4.40;;;3.90;;
11313;SDS011;5712;48.858;9.206;2022-09-06T08:43:17;4.83;;;3.87;;
11313;SDS011;5712;48.858;9.206;2022-09-06T08:45:46;4.67;;;3.97;;
11313;SDS011;5712;48.858;9.206;2022-09-06T08:48:16;4.40;;;4.00;;
11313;SDS011;5712;48.858;9.206;2022-09-06T08:50:45;5.37;;;3.80;;
11313;SDS011;5712;48.858;9.206;2022-09-06T08:53:20;4.43;;;4.03;;
11313;SDS011;5712;48.858;9.206;2022-09-06T08:55:47;5.77;;;4.23;;
11313;SDS011;5712;48.858;9.206;2022-09-06T08:58:30;5.13;;;3.80;;
11313;SDS011;5712;48.858;9.206;2022-09-06T09:01:05;7.00;;;4.10;;
11313;SDS011;5712;48.858;9.206;2022-09-06T09:03:38;4.03;;;3.63;;
11313;SDS011;5712;48.858;9.206;2022-09-06T09:06:08;7.63;;;3.53;;
11313;SDS011;5712;48.858;9.206;2022-09-06T09:08:38;4.17;;;3.47;;
11313;SDS011;5712;48.858;9.206;2022-09-06T09:11:11;5.07;;;3.97;;
11313;SDS011;5712;48.858;9.206;2022-09-06T09:13:45;7.13;;;3.70;;
11313;SDS011;5712;48.858;9.206;2022-09-06T09:16:18;5.00;;;3.70;;
11313;SDS011;5712;48.858;9.206;2022-09-06T09:18:48;5.63;;;4.00;;
11313;SDS011;5712;48.858;9.206;2022-09-06T09:21:18;4.23;;;3.50;;
11313;SDS011;5712;48.858;9.206;2022-09-06T09:23:47;4.37;;;3.50;;
11313;SDS011;5712;48.858;9.206;2022-09-06T09:26:18;4.10;;;3.50;;
11313;SDS011;5712;48.858;9.206;2022-09-06T09:29:06;8.10;;;3.73;;
11313;SDS011;5712;48.858;9.206;2022-09-06T09:31:36;5.30;;;3.70;;
11313;SDS011;5712;48.858;9.206;2022-09-06T09:34:05;3.60;;;3.30;;
11313;SDS011;5712;48.858;9.206;2022-09-06T09:36:36;5.50;;;3.70;;
11313;SDS011;5712;48.858;9.206;2022-09-06T09:39:07;3.80;;;3.40;;
11313;SDS011;5712;48.858;9.206;2022-09-06T09:41:36;4.97;;;3.43;;
11313;SDS011;5712;48.858;9.206;2022-09-06T09:44:06;4.47;;;3.27;;
11313;SDS011;5712;48.858;9.206;2022-09-06T09:46:36;5.50;;;3.53;;
11313;SDS011;5712;48.858;9.206;2022-09-06T09:49:06;3.70;;;3.30;;
11313;SDS011;5712;48.858;9.206;2022-09-06T09:51:35;4.73;;;3.40;;
11313;SDS011;5712;48.858;9.206;2022-09-06T09:54:04;6.13;;;3.40;;
11313;SDS011;5712;48.858;9.206;2022-09-06T09:56:33;3.88;;;3.42;;
11313;SDS011;5712;48.858;9.206;2022-09-06T09:59:16;5.68;;;3.30;;
11313;SDS011;5712;48.858;9.206;2022-09-06T10:01:46;4.63;;;2.90;;
11313;SDS011;5712;48.858;9.206;2022-09-06T10:04:17;4.32;;;3.30;;
11313;SDS011;5712;48.858;9.206;2022-09-06T10:06:47;4.97;;;3.03;;
11313;SDS011;5712;48.858;9.206;2022-09-06T10:09:14;5.07;;;3.05;;
11313;SDS011;5712;48.858;9.206;2022-09-06T10:11:51;5.10;;;3.10;;
11313;SDS011;5712;48.858;9.206;2022-09-06T10:14:24;7.13;;;3.53;;
11313;SDS011;5712;48.858;9.206;2022-09-06T10:16:52;6.63;;;2.90;;
11313;SDS011;5712;48.858;9.206;2022-09-06T10:19:21;5.30;;;3.10;;
11313;SDS011;5712;48.858;9.206;2022-09-06T10:22:02;5.10;;;2.70;;
11313;SDS011;5712;48.858;9.206;2022-09-06T10:24:44;4.90;;;3.03;;
11313;SDS011;5712;48.858;9.206;2022-09-06T10:27:22;6.50;;;3.33;;
11313;SDS011;5712;48.858;9.206;2022-09-06T10:29:53;4.97;;;3.00;;
11313;SDS011;5712;48.858;9.206;2022-09-06T10:32:30;4.38;;;2.80;;
11313;SDS011;5712;48.858;9.206;2022-09-06T10:35:09;5.47;;;3.00;;
11313;SDS011;5712;48.858;9.206;2022-09-06T10:37:44;3.92;;;2.95;;
11313;SDS011;5712;48.858;9.206;2022-09-06T10:40:18;4.90;;;3.35;;
11313;SDS011;5712;48.858;9.206;2022-09-06T10:42:54;6.50;;;3.00;;
11313;SDS011;5712;48.858;9.206;2022-09-06T10:45:28;4.82;;;2.80;;
11313;SDS011;5712;48.858;9.206;2022-09-06T10:48:02;4.53;;;3.10;;
11313;SDS011;5712;48.858;9.206;2022-09-06T10:50:37;2.70;;;2.50;;
11313;SDS011;5712;48.858;9.206;2022-09-06T10:53:16;6.67;;;3.00;;
11313;SDS011;5712;48.858;9.206;2022-09-06T10:55:58;6.38;;;3.40;;
11313;SDS011;5712;48.858;9.206;2022-09-06T10:58:30;4.25;;;3.03;;
11313;SDS011;5712;48.858;9.206;2022-09-06T11:00:59;4.45;;;2.83;;
11313;SDS011;5712;48.858;9.206;2022-09-06T11:03:28;5.78;;;3.30;;
11313;SDS011;5712;48.858;9.206;2022-09-06T11:06:00;5.97;;;3.20;;
11313;SDS011;5712;48.858;9.206;2022-09-06T11:08:30;4.65;;;3.10;;
11313;SDS011;5712;48.858;9.206;2022-09-06T11:11:06;7.75;;;3.30;;
11313;SDS011;5712;48.858;9.206;2022-09-06T11:13:36;5.05;;;3.53;;
11313;SDS011;5712;48.858;9.206;2022-09-06T11:16:05;5.22;;;3.28;;
11313;SDS011;5712;48.858;9.206;2022-09-06T11:18:36;5.90;;;3.08;;
11313;SDS011;5712;48.858;9.206;2022-09-06T11:21:16;4.30;;;3.22;;
11313;SDS011;5712;48.858;9.206;2022-09-06T11:24:03;7.93;;;3.25;;
11313;SDS011;5712;48.858;9.206;2022-09-06T11:26:41;6.43;;;3.30;;
11313;SDS011;5712;48.858;9.206;2022-09-06T11:29:09;5.07;;;3.42;;
11313;SDS011;5712;48.858;9.206;2022-09-06T11:31:50;5.80;;;3.20;;
11313;SDS011;5712;48.858;9.206;2022-09-06T11:34:19;5.80;;;3.00;;
11313;SDS011;5712;48.858;9.206;2022-09-06T11:36:53;5.15;;;3.30;;
11313;SDS011;5712;48.858;9.206;2022-09-06T11:39:25;4.75;;;2.90;;
11313;SDS011;5712;48.858;9.206;2022-09-06T11:41:55;4.70;;;2.90;;
11313;SDS011;5712;48.858;9.206;2022-09-06T11:47:34;5.20;;;3.30;;
11313;SDS011;5712;48.858;9.206;2022-09-06T11:50:23;5.43;;;3.15;;
11313;SDS011;5712;48.858;9.206;2022-09-06T11:52:59;4.57;;;3.47;;
11313;SDS011;5712;48.858;9.206;2022-09-06T11:55:39;5.85;;;3.35;;
11313;SDS011;5712;48.858;9.206;2022-09-06T11:58:10;4.05;;;3.65;;
11313;SDS011;5712;48.858;9.206;2022-09-06T12:03:59;5.78;;;3.30;;
11313;SDS011;5712;48.858;9.206;2022-09-06T12:06:27;5.68;;;3.42;;
11313;SDS011;5712;48.858;9.206;2022-09-06T12:08:57;7.03;;;3.67;;
11313;SDS011;5712;48.858;9.206;2022-09-06T12:11:28;5.13;;;3.60;;
11313;SDS011;5712;48.858;9.206;2022-09-06T12:14:01;4.63;;;3.40;;
11313;SDS011;5712;48.858;9.206;2022-09-06T12:19:39;5.28;;;3.15;;
11313;SDS011;5712;48.858;9.206;2022-09-06T12:28:24;6.05;;;3.33;;
11313;SDS011;5712;48.858;9.206;2022-09-06T12:30:56;5.33;;;2.93;;
11313;SDS011;5712;48.858;9.206;2022-09-06T12:33:24;4.63;;;3.30;;
11313;SDS011;5712;48.858;9.206;2022-09-06T12:38:52;5.63;;;3.40;;
11313;SDS011;5712;48.858;9.206;2022-09-06T12:41:22;3.65;;;2.72;;
11313;SDS011;5712;48.858;9.206;2022-09-06T12:43:50;4.63;;;2.85;;
11313;SDS011;5712;48.858;9.206;2022-09-06T12:46:19;6.17;;;2.80;;
11313;SDS011;5712;48.858;9.206;2022-09-06T12:48:58;4.33;;;2.53;;
11313;SDS011;5712;48.858;9.206;2022-09-06T12:51:26;4.35;;;2.63;;
11313;SDS011;5712;48.858;9.206;2022-09-06T12:53:53;3.63;;;2.35;;
11313;SDS011;5712;48.858;9.206;2022-09-06T12:56:24;4.50;;;2.80;;
11313;SDS011;5712;48.858;9.206;2022-09-06T12:58:57;3.63;;;2.77;;
11313;SDS011;5712;48.858;9.206;2022-09-06T13:01:35;3.40;;;2.53;;
11313;SDS011;5712;48.858;9.206;2022-09-06T13:04:03;6.37;;;2.77;;
11313;SDS011;5712;48.858;9.206;2022-09-06T13:06:33;4.43;;;2.60;;
11313;SDS011;5712;48.858;9.206;2022-09-06T13:09:05;4.33;;;2.60;;
11313;SDS011;5712;48.858;9.206;2022-09-06T13:11:37;4.93;;;2.60;;
11313;SDS011;5712;48.858;9.206;2022-09-06T13:14:09;4.67;;;2.77;;
11313;SDS011;5712;48.858;9.206;2022-09-06T13:16:41;3.93;;;2.57;;
11313;SDS011;5712;48.858;9.206;2022-09-06T13:19:10;3.90;;;2.70;;
11313;SDS011;5712;48.858;9.206;2022-09-06T13:21:39;4.77;;;2.67;;
11313;SDS011;5712;48.858;9.206;2022-09-06T13:24:17;3.30;;;2.60;;
11313;SDS011;5712;48.858;9.206;2022-09-06T13:26:47;4.33;;;2.60;;
11313;SDS011;5712;48.858;9.206;2022-09-06T13:29:21;3.37;;;2.67;;
11313;SDS011;5712;48.858;9.206;2022-09-06T13:31:49;3.70;;;2.57;;
11313;SDS011;5712;48.858;9.206;2022-09-06T13:34:20;3.20;;;2.30;;
11313;SDS011;5712;48.858;9.206;2022-09-06T13:36:49;4.23;;;2.83;;
11313;SDS011;5712;48.858;9.206;2022-09-06T13:39:29;4.00;;;2.37;;
11313;SDS011;5712;48.858;9.206;2022-09-06T13:42:02;3.10;;;2.30;;
11313;SDS011;5712;48.858;9.206;2022-09-06T13:44:31;4.67;;;2.83;;
11313;SDS011;5712;48.858;9.206;2022-09-06T13:46:59;3.75;;;2.72;;
11313;SDS011;5712;48.858;9.206;2022-09-06T13:49:26;4.37;;;2.73;;
11313;SDS011;5712;48.858;9.206;2022-09-06T13:51:54;3.67;;;2.45;;
11313;SDS011;5712;48.858;9.206;2022-09-06T13:54:25;2.70;;;2.40;;
11313;SDS011;5712;48.858;9.206;2022-09-06T13:56:52;2.80;;;2.30;;
11313;SDS011;5712;48.858;9.206;2022-09-06T13:59:21;2.92;;;2.50;;
11313;SDS011;5712;48.858;9.206;2022-09-06T14:01:49;4.50;;;2.80;;
11313;SDS011;5712;48.858;9.206;2022-09-06T14:04:23;3.53;;;2.70;;
11313;SDS011;5712;48.858;9.206;2022-09-06T14:06:50;4.38;;;2.60;;
11313;SDS011;5712;48.858;9.206;2022-09-06T14:09:18;3.47;;;2.77;;
11313;SDS011;5712;48.858;9.206;2022-09-06T14:11:45;3.37;;;2.50;;
11313;SDS011;5712;48.858;9.206;2022-09-06T14:14:12;2.93;;;2.63;;
11313;SDS011;5712;48.858;9.206;2022-09-06T14:16:40;3.90;;;2.90;;
11313;SDS011;5712;48.858;9.206;2022-09-06T14:19:06;3.30;;;2.83;;
11313;SDS011;5712;48.858;9.206;2022-09-06T14:21:33;3.97;;;2.90;;
11313;SDS011;5712;48.858;9.206;2022-09-06T14:24:00;3.72;;;3.42;;
11313;SDS011;5712;48.858;9.206;2022-09-06T14:26:27;5.13;;;3.30;;
11313;SDS011;5712;48.858;9.206;2022-09-06T14:28:54;4.90;;;3.23;;
11313;SDS011;5712;48.858;9.206;2022-09-06T14:31:21;4.33;;;3.17;;
11313;SDS011;5712;48.858;9.206;2022-09-06T14:33:53;3.10;;;2.80;;
11313;SDS011;5712;48.858;9.206;2022-09-06T14:36:20;4.10;;;3.00;;
11313;SDS011;5712;48.858;9.206;2022-09-06T14:38:49;3.57;;;2.93;;
11313;SDS011;5712;48.858;9.206;2022-09-06T14:41:17;3.87;;;3.23;;
11313;SDS011;5712;48.858;9.206;2022-09-06T14:43:46;5.50;;;3.37;;
11313;SDS011;5712;48.858;9.206;2022-09-06T14:46:15;3.60;;;2.97;;
11313;SDS011;5712;48.858;9.206;2022-09-06T14:48:42;4.40;;;3.00;;
11313;SDS011;5712;48.858;9.206;2022-09-06T14:51:11;4.83;;;2.67;;
11313;SDS011;5712;48.858;9.206;2022-09-06T14:53:42;4.43;;;2.43;;
11313;SDS011;5712;48.858;9.206;2022-09-06T14:56:10;4.30;;;3.03;;
11313;SDS011;5712;48.858;9.206;2022-09-06T14:58:38;4.93;;;2.90;;
11313;SDS011;5712;48.858;9.206;2022-09-06T15:01:09;4.60;;;3.00;;
11313;SDS011;5712;48.858;9.206;2022-09-06T15:03:37;4.70;;;2.60;;
11313;SDS011;5712;48.858;9.206;2022-09-06T15:06:05;5.33;;;2.80;;
11313;SDS011;5712;48.858;9.206;2022-09-06T15:08:34;4.13;;;2.90;;
11313;SDS011;5712;48.858;9.206;2022-09-06T15:11:02;4.53;;;3.47;;
11313;SDS011;5712;48.858;9.206;2022-09-06T15:13:29;7.23;;;4.30;;
11313;SDS011;5712;48.858;9.206;2022-09-06T15:15:56;7.57;;;5.10;;
11313;SDS011;5712;48.858;9.206;2022-09-06T15:18:23;7.67;;;5.10;;
11313;SDS011;5712;48.858;9.206;2022-09-06T15:20:49;7.57;;;5.20;;
11313;SDS011;5712;48.858;9.206;2022-09-06T15:23:16;8.33;;;4.53;;
11313;SDS011;5712;48.858;9.206;2022-09-06T15:25:48;3.90;;;3.50;;
11313;SDS011;5712;48.858;9.206;2022-09-06T15:28:16;5.07;;;3.13;;
11313;SDS011;5712;48.858;9.206;2022-09-06T15:30:44;4.73;;;2.90;;
11313;SDS011;5712;48.858;9.206;2022-09-06T15:33:11;4.60;;;2.80;;
11313;SDS011;5712;48.858;9.206;2022-09-06T15:35:39;4.90;;;2.47;;
11313;SDS011;5712;48.858;9.206;2022-09-06T15:38:06;5.80;;;2.90;;
11313;SDS011;5712;48.858;9.206;2022-09-06T15:40:33;4.83;;;2.80;;